Time,TemperatureF,DewpointF,PressureIn,WindDirection,WindDirectionDegrees,WindSpeedMPH,WindSpeedGustMPH,Humidity,HourlyPrecipIn,Conditions,Clouds,dailyrainin,SoftwareType,DateUTC
2013-02-12 00:02:00,38.5,21.9,28.82,South,180,0.0,0.0,51,0.00,,FEW080,0.00,VWS V14.01,2013-02-12 07:02:00,
2013-02-12 00:07:00,38.5,21.9,28.82,South,180,0.0,0.0,51,0.00,,FEW080,0.00,VWS V14.01,2013-02-12 07:07:00,
2013-02-12 00:12:00,38.5,21.9,28.82,South,180,0.0,0.0,51,0.00,,FEW080,0.00,VWS V14.01,2013-02-12 07:12:00,
2013-02-12 00:17:00,38.5,21.9,28.85,South,180,0.0,0.0,51,0.00,,FEW080,0.00,VWS V14.01,2013-02-12 07:17:00,
2013-02-12 00:23:00,38.5,21.9,28.85,South,180,0.0,0.0,51,0.00,,FEW080,0.00,VWS V14.01,2013-02-12 07:23:00,
2013-02-12 00:28:00,38.5,21.9,28.85,South,180,0.0,0.0,51,0.00,,FEW080,0.00,VWS V14.01,2013-02-12 07:28:00,
2013-02-12 00:33:00,38.5,21.9,28.85,East,90,0.0,0.0,51,0.00,,FEW080,0.00,VWS V14.01,2013-02-12 07:33:00,
2013-02-12 00:38:00,38.5,21.9,28.85,East,90,0.0,0.0,51,0.00,,FEW080,0.00,VWS V14.01,2013-02-12 07:38:00,
2013-02-12 00:43:00,38.5,21.9,28.85,East,90,0.0,515.6,51,0.00,,FEW080,0.00,VWS V14.01,2013-02-12 07:43:00,
2013-02-12 00:48:00,38.5,21.9,28.85,East,90,0.0,0.0,51,0.00,,FEW080,0.00,VWS V14.01,2013-02-12 07:48:00,
2013-02-12 00:53:00,38.5,21.9,28.85,East,90,0.0,0.0,51,0.00,,FEW080,0.00,VWS V14.01,2013-02-12 07:53:00,
2013-02-12 00:58:00,38.5,21.9,28.85,WNW,292,0.0,0.0,51,0.00,,FEW080,0.00,VWS V14.01,2013-02-12 07:58:00,
2013-02-12 01:03:00,38.5,21.9,28.85,WNW,292,0.0,0.0,51,0.00,,FEW080,0.00,VWS V14.01,2013-02-12 08:03:00,
2013-02-12 01:08:00,38.5,21.9,28.85,WNW,292,0.0,0.0,51,0.00,,FEW080,0.00,VWS V14.01,2013-02-12 08:08:00,
2013-02-12 01:13:00,38.5,21.9,28.85,WNW,292,0.0,0.0,51,0.00,,FEW080,0.00,VWS V14.01,2013-02-12 08:13:00,
2013-02-12 01:18:00,38.5,21.9,28.85,WNW,292,0.0,0.0,51,0.00,,FEW080,0.00,VWS V14.01,2013-02-12 08:18:00,
2013-02-12 01:23:00,38.5,21.9,28.85,WNW,292,0.0,0.0,51,0.00,,FEW080,0.00,VWS V14.01,2013-02-12 08:23:00,
2013-02-12 01:28:00,38.5,21.9,28.85,WNW,292,0.0,0.0,51,0.00,,FEW080,0.00,VWS V14.01,2013-02-12 08:28:00,
2013-02-12 01:33:00,38.5,21.9,28.85,NNW,338,0.0,0.0,51,0.00,,FEW080,0.00,VWS V14.01,2013-02-12 08:33:00,
2013-02-12 01:39:00,35.0,26.3,28.85,NNW,338,0.0,0.0,70,0.00,,FEW080,0.00,VWS V14.01,2013-02-12 08:39:00,
2013-02-12 01:44:00,35.0,26.3,28.85,SE,135,0.0,0.0,70,0.00,,FEW080,0.00,VWS V14.01,2013-02-12 08:44:00,
2013-02-12 01:49:00,34.9,25.0,28.85,SE,135,0.0,0.0,67,0.00,,FEW080,0.00,VWS V14.01,2013-02-12 08:49:00,
2013-02-12 01:54:00,34.9,25.0,28.85,SE,135,0.0,0.0,67,0.00,,FEW080,0.00,VWS V14.01,2013-02-12 08:54:00,
2013-02-12 01:59:00,34.9,25.0,28.82,SSE,158,0.0,0.0,67,0.00,,FEW080,0.00,VWS V14.01,2013-02-12 08:59:00,
2013-02-12 02:04:00,34.9,25.0,28.82,SSE,158,0.0,0.0,67,0.00,,CLR,0.00,VWS V14.01,2013-02-12 09:04:00,
2013-02-12 02:09:00,34.9,25.0,28.82,SSE,158,0.0,0.0,67,0.00,,CLR,0.00,VWS V14.01,2013-02-12 09:09:00,
2013-02-12 02:14:00,35.0,26.9,28.85,North,0,0.0,0.0,72,0.00,,CLR,0.00,VWS V14.01,2013-02-12 09:14:00,
2013-02-12 02:19:00,34.9,26.4,28.85,North,0,0.0,0.0,71,0.00,,CLR,0.00,VWS V14.01,2013-02-12 09:19:00,
2013-02-12 02:24:00,34.9,26.4,28.85,East,90,0.0,0.0,71,0.00,,CLR,0.00,VWS V14.01,2013-02-12 09:24:00,
2013-02-12 02:29:00,34.7,26.2,28.85,ESE,112,0.0,0.0,71,0.00,,CLR,0.00,VWS V14.01,2013-02-12 09:29:00,
2013-02-12 02:34:00,34.7,25.9,28.85,NW,315,0.0,0.0,70,0.00,,CLR,0.00,VWS V14.01,2013-02-12 09:34:00,
2013-02-12 02:39:00,34.7,25.2,28.85,SE,135,0.0,0.0,68,0.00,,CLR,0.00,VWS V14.01,2013-02-12 09:39:00,
2013-02-12 02:44:00,34.7,25.6,28.85,SW,225,0.0,0.0,69,0.00,,CLR,0.00,VWS V14.01,2013-02-12 09:44:00,
2013-02-12 02:49:00,34.7,25.6,28.85,SW,225,0.0,0.0,69,0.00,,CLR,0.00,VWS V14.01,2013-02-12 09:49:00,
2013-02-12 02:54:00,34.7,25.6,28.85,SW,225,0.0,0.0,69,0.00,,CLR,0.00,VWS V14.01,2013-02-12 09:54:00,
2013-02-12 02:59:00,34.7,25.9,28.85,SW,225,0.0,0.0,70,0.00,,CLR,0.00,VWS V14.01,2013-02-12 09:59:00,
2013-02-12 03:04:00,34.9,26.1,28.85,SW,225,0.0,0.0,70,0.00,,CLR,0.00,VWS V14.01,2013-02-12 10:04:00,
2013-02-12 03:09:00,34.9,26.1,28.85,SW,225,0.0,0.0,70,0.00,,CLR,0.00,VWS V14.01,2013-02-12 10:09:00,
2013-02-12 03:14:00,34.9,26.1,28.85,SW,225,0.0,0.0,70,0.00,,CLR,0.00,VWS V14.01,2013-02-12 10:14:00,
2013-02-12 03:20:00,34.7,25.9,28.85,SW,225,0.0,0.0,70,0.00,,CLR,0.00,VWS V14.01,2013-02-12 10:20:00,
2013-02-12 03:25:00,34.7,25.9,28.85,SW,225,0.0,0.0,70,0.00,,CLR,0.00,VWS V14.01,2013-02-12 10:25:00,
2013-02-12 03:30:00,34.5,25.4,28.85,SW,225,0.0,0.0,69,0.00,,CLR,0.00,VWS V14.01,2013-02-12 10:30:00,
2013-02-12 03:35:00,34.3,25.2,28.85,SW,225,0.0,0.0,69,0.00,,CLR,0.00,VWS V14.01,2013-02-12 10:35:00,
2013-02-12 03:40:00,34.3,25.6,28.85,SW,225,0.0,0.0,70,0.00,,CLR,0.00,VWS V14.01,2013-02-12 10:40:00,
2013-02-12 03:45:00,34.3,25.6,28.85,SW,225,0.0,0.0,70,0.00,,CLR,0.00,VWS V14.01,2013-02-12 10:45:00,
2013-02-12 03:50:00,34.3,25.2,28.85,SW,225,0.0,0.0,69,0.00,,CLR,0.00,VWS V14.01,2013-02-12 10:50:00,
2013-02-12 03:55:00,34.1,25.7,28.85,SW,225,0.0,0.0,71,0.00,,CLR,0.00,VWS V14.01,2013-02-12 10:55:00,
2013-02-12 04:00:00,34.1,25.7,28.85,SW,225,0.0,0.0,71,0.00,,CLR,0.00,VWS V14.01,2013-02-12 11:00:00,
2013-02-12 04:05:00,34.0,25.6,28.85,SW,225,0.0,0.0,71,0.00,,CLR,0.00,VWS V14.01,2013-02-12 11:05:00,
2013-02-12 04:10:00,34.0,25.6,28.85,SW,225,0.0,0.0,71,0.00,,CLR,0.00,VWS V14.01,2013-02-12 11:10:00,
2013-02-12 04:15:00,33.8,25.4,28.85,SW,225,0.0,0.0,71,0.00,,CLR,0.00,VWS V14.01,2013-02-12 11:15:00,
2013-02-12 04:20:00,33.8,25.4,28.85,SW,225,0.0,0.0,71,0.00,,CLR,0.00,VWS V14.01,2013-02-12 11:20:00,
2013-02-12 04:26:00,33.8,25.7,28.85,SW,225,0.0,0.0,72,0.00,,CLR,0.00,VWS V14.01,2013-02-12 11:26:00,
2013-02-12 04:31:00,33.6,25.2,28.85,SW,225,0.0,0.0,71,0.00,,CLR,0.00,VWS V14.01,2013-02-12 11:31:00,
2013-02-12 04:36:00,33.8,26.1,28.85,South,180,0.0,0.0,73,0.00,,CLR,0.00,VWS V14.01,2013-02-12 11:36:00,
2013-02-12 04:41:00,33.6,25.5,28.85,South,180,0.0,0.0,72,0.00,,CLR,0.00,VWS V14.01,2013-02-12 11:41:00,
2013-02-12 04:46:00,33.4,26.0,28.88,South,180,0.0,0.0,74,0.00,,CLR,0.00,VWS V14.01,2013-02-12 11:46:00,
2013-02-12 04:51:00,33.4,25.7,28.88,ESE,112,0.0,0.0,73,0.00,,CLR,0.00,VWS V14.01,2013-02-12 11:51:00,
2013-02-12 04:56:00,33.6,25.9,28.88,NNW,338,0.0,0.0,73,0.00,,CLR,0.00,VWS V14.01,2013-02-12 11:56:00,
2013-02-12 05:01:00,33.4,26.0,28.88,SW,225,0.0,0.0,74,0.00,,CLR,0.00,VWS V14.01,2013-02-12 12:01:00,
2013-02-12 05:06:00,33.6,25.5,28.88,NNE,22,0.0,2.7,72,0.00,,CLR,0.00,VWS V14.01,2013-02-12 12:06:00,
2013-02-12 05:11:00,33.4,25.7,28.88,East,90,0.0,0.0,73,0.00,,CLR,0.00,VWS V14.01,2013-02-12 12:11:00,
2013-02-12 05:16:00,33.4,25.7,28.88,SW,225,0.0,2.7,73,0.00,,CLR,0.00,VWS V14.01,2013-02-12 12:16:00,
2013-02-12 05:21:00,33.2,25.5,28.88,SW,225,0.0,0.0,73,0.00,,CLR,0.00,VWS V14.01,2013-02-12 12:21:00,
2013-02-12 05:26:00,33.2,25.9,28.88,SW,225,0.0,0.0,74,0.00,,CLR,0.00,VWS V14.01,2013-02-12 12:26:00,
2013-02-12 05:31:00,33.2,25.9,28.88,SW,225,0.0,0.0,74,0.00,,CLR,0.00,VWS V14.01,2013-02-12 12:31:00,
2013-02-12 05:36:00,33.1,26.0,28.88,SW,225,0.0,0.0,75,0.00,,CLR,0.00,VWS V14.01,2013-02-12 12:36:00,
2013-02-12 05:41:00,33.2,26.8,28.88,NW,315,0.0,0.0,77,0.00,,CLR,0.00,VWS V14.01,2013-02-12 12:41:00,
2013-02-12 05:47:00,33.1,26.6,28.88,NW,315,0.0,0.0,77,0.00,,CLR,0.00,VWS V14.01,2013-02-12 12:47:00,
2013-02-12 05:52:00,33.2,26.8,28.88,NW,315,0.0,0.0,77,0.00,,CLR,0.00,VWS V14.01,2013-02-12 12:52:00,
2013-02-12 05:57:00,33.2,26.5,28.88,NW,315,0.0,0.0,76,0.00,,CLR,0.00,VWS V14.01,2013-02-12 12:57:00,
2013-02-12 06:02:00,33.2,26.5,28.91,NW,315,0.0,0.0,76,0.00,,CLR,0.00,VWS V14.01,2013-02-12 13:02:00,
2013-02-12 06:07:00,33.1,26.0,28.91,NW,315,0.0,0.0,75,0.00,,CLR,0.00,VWS V14.01,2013-02-12 13:07:00,
2013-02-12 06:12:00,32.9,25.5,28.91,NW,315,0.0,0.0,74,0.00,,CLR,0.00,VWS V14.01,2013-02-12 13:12:00,
2013-02-12 06:17:00,32.7,25.3,28.88,NW,315,0.0,0.0,74,0.00,,CLR,0.00,VWS V14.01,2013-02-12 13:17:00,
2013-02-12 06:22:00,32.7,25.3,28.88,NW,315,0.0,0.0,74,0.00,,CLR,0.00,VWS V14.01,2013-02-12 13:22:00,
2013-02-12 06:27:00,32.5,25.2,28.88,NW,315,0.0,0.0,74,0.00,,CLR,0.00,VWS V14.01,2013-02-12 13:27:00,
2013-02-12 06:32:00,32.5,25.2,28.88,NW,315,0.0,0.0,74,0.00,,CLR,0.00,VWS V14.01,2013-02-12 13:32:00,
2013-02-12 06:37:00,32.5,25.2,28.88,NW,315,0.0,0.0,74,0.00,,CLR,0.00,VWS V14.01,2013-02-12 13:37:00,
2013-02-12 06:42:00,32.5,25.5,28.88,NW,315,0.0,0.0,75,0.00,,CLR,0.00,VWS V14.01,2013-02-12 13:42:00,
2013-02-12 06:47:00,32.3,25.0,28.91,NW,315,0.0,0.0,74,0.00,,CLR,0.00,VWS V14.01,2013-02-12 13:47:00,
2013-02-12 06:52:00,32.2,24.8,28.91,NW,315,0.0,0.0,74,0.00,,CLR,0.00,VWS V14.01,2013-02-12 13:52:00,
2013-02-12 06:57:00,32.0,24.6,28.91,NW,315,0.0,0.0,74,0.00,,CLR,0.00,VWS V14.01,2013-02-12 13:57:00,
2013-02-12 07:02:00,32.0,24.6,28.91,NW,315,0.0,0.0,74,0.00,,FEW080,0.00,VWS V14.01,2013-02-12 14:02:00,
2013-02-12 07:07:00,31.8,24.5,28.91,NW,315,0.0,0.0,74,0.00,,FEW080,0.00,VWS V14.01,2013-02-12 14:07:00,
2013-02-12 07:12:00,31.6,24.3,28.88,NW,315,0.0,0.0,74,0.00,,FEW080,0.00,VWS V14.01,2013-02-12 14:12:00,
2013-02-12 07:18:00,31.6,24.3,28.88,NW,315,0.0,0.0,74,0.00,,FEW080,0.00,VWS V14.01,2013-02-12 14:18:00,
2013-02-12 07:23:00,31.6,24.3,28.88,NW,315,0.0,0.0,74,0.00,,FEW080,0.00,VWS V14.01,2013-02-12 14:23:00,
2013-02-12 07:28:00,31.6,24.6,28.91,NW,315,0.0,0.0,75,0.00,,FEW080,0.00,VWS V14.01,2013-02-12 14:28:00,
2013-02-12 07:33:00,31.8,24.5,28.91,NW,315,0.0,0.0,74,0.00,,FEW080,0.00,VWS V14.01,2013-02-12 14:33:00,
2013-02-12 07:38:00,31.8,25.1,28.91,NW,315,0.0,0.0,76,0.00,,FEW080,0.00,VWS V14.01,2013-02-12 14:38:00,
2013-02-12 07:43:00,32.0,25.3,28.91,NW,315,0.0,0.0,76,0.00,,FEW080,0.00,VWS V14.01,2013-02-12 14:43:00,
2013-02-12 07:48:00,32.2,25.8,28.91,NW,315,0.0,0.0,77,0.00,,FEW080,0.00,VWS V14.01,2013-02-12 14:48:00,
2013-02-12 07:53:00,32.3,26.0,28.91,NW,315,0.0,0.0,77,0.00,,FEW080,0.00,VWS V14.01,2013-02-12 14:53:00,
2013-02-12 07:58:00,32.7,26.6,28.91,NW,315,0.0,0.0,78,0.00,,FEW080,0.00,VWS V14.01,2013-02-12 14:58:00,
2013-02-12 08:03:00,33.1,27.3,28.91,NW,315,0.0,0.0,79,0.00,,FEW080,0.00,VWS V14.01,2013-02-12 15:03:00,
2013-02-12 08:08:00,33.4,27.9,28.91,NW,315,0.0,0.0,80,0.00,,FEW080,0.00,VWS V14.01,2013-02-12 15:08:00,
2013-02-12 08:13:00,33.6,28.4,28.94,NW,315,0.0,0.0,81,0.00,,FEW080,0.00,VWS V14.01,2013-02-12 15:13:00,
2013-02-12 08:18:00,33.8,28.9,28.94,NW,315,0.0,0.0,82,0.00,,FEW080,0.00,VWS V14.01,2013-02-12 15:18:00,
2013-02-12 08:23:00,34.1,29.2,28.94,NNW,338,0.0,0.0,82,0.00,,FEW080,0.00,VWS V14.01,2013-02-12 15:23:00,
2013-02-12 08:28:00,34.1,29.2,28.94,NW,315,0.0,0.0,82,0.00,,FEW080,0.00,VWS V14.01,2013-02-12 15:28:00,
2013-02-12 08:33:00,34.1,29.2,28.94,NW,315,0.0,0.0,82,0.00,,FEW080,0.00,VWS V14.01,2013-02-12 15:33:00,
2013-02-12 08:38:00,34.1,29.2,28.94,NW,315,0.0,0.0,82,0.00,,FEW080,0.00,VWS V14.01,2013-02-12 15:38:00,
2013-02-12 08:44:00,35.9,30.7,28.94,SE,135,4.0,4.0,81,0.00,,FEW080,0.00,VWS V14.01,2013-02-12 15:44:00,
2013-02-12 08:49:00,36.5,31.5,28.94,SE,135,0.0,0.0,82,0.00,,FEW080,0.00,VWS V14.01,2013-02-12 15:49:00,
2013-02-12 08:54:00,37.2,31.9,28.94,ESE,112,0.0,0.0,81,0.00,,FEW080,0.00,VWS V14.01,2013-02-12 15:54:00,
2013-02-12 08:59:00,37.6,32.0,28.97,East,90,0.0,0.0,80,0.00,,FEW080,0.00,VWS V14.01,2013-02-12 15:59:00,
2013-02-12 09:04:00,37.9,31.7,28.97,NE,45,0.0,0.0,78,0.00,,CLR,0.00,VWS V14.01,2013-02-12 16:04:00,
2013-02-12 09:09:00,38.3,32.0,28.97,SE,135,3.4,3.4,78,0.00,,CLR,0.00,VWS V14.01,2013-02-12 16:09:00,
2013-02-12 09:14:00,38.8,32.2,28.97,ENE,68,4.0,4.0,77,0.00,,CLR,0.00,VWS V14.01,2013-02-12 16:14:00,
2013-02-12 09:19:00,39.2,31.9,28.97,East,90,0.0,0.0,75,0.00,,CLR,0.00,VWS V14.01,2013-02-12 16:19:00,
2013-02-12 09:24:00,39.7,31.8,28.97,East,90,0.0,0.0,73,0.00,,CLR,0.00,VWS V14.01,2013-02-12 16:24:00,
2013-02-12 09:29:00,40.3,31.6,28.97,South,180,4.0,6.7,71,0.00,,CLR,0.00,VWS V14.01,2013-02-12 16:29:00,
2013-02-12 09:34:00,40.4,31.8,28.97,SSE,158,6.0,6.0,71,0.00,,CLR,0.00,VWS V14.01,2013-02-12 16:34:00,
2013-02-12 09:39:00,42.1,29.6,28.97,SE,135,8.1,10.7,61,0.00,,CLR,0.00,VWS V14.01,2013-02-12 16:39:00,
2013-02-12 09:44:00,43.3,30.4,28.97,SSE,158,6.0,6.0,60,0.00,,CLR,0.00,VWS V14.01,2013-02-12 16:44:00,
2013-02-12 09:49:00,44.2,30.0,28.97,SW,225,6.7,6.7,57,0.00,,CLR,0.00,VWS V14.01,2013-02-12 16:49:00,
2013-02-12 09:55:00,44.2,27.7,28.97,South,180,4.0,9.4,52,0.00,,CLR,0.00,VWS V14.01,2013-02-12 16:55:00,
2013-02-12 10:00:00,44.8,27.8,28.97,WSW,248,4.0,4.0,51,0.00,,CLR,0.00,VWS V14.01,2013-02-12 17:00:00,
2013-02-12 10:05:00,45.5,28.9,28.97,ENE,68,4.0,8.1,52,0.00,,CLR,0.00,VWS V14.01,2013-02-12 17:05:00,
2013-02-12 10:10:00,46.2,28.1,28.97,ESE,112,0.0,6.0,49,0.00,,CLR,0.00,VWS V14.01,2013-02-12 17:10:00,
2013-02-12 10:15:00,45.8,26.8,28.97,SE,135,8.7,8.7,47,0.00,,CLR,0.00,VWS V14.01,2013-02-12 17:15:00,
2013-02-12 10:20:00,46.6,26.9,28.97,NE,45,6.0,7.4,46,0.00,,CLR,0.00,VWS V14.01,2013-02-12 17:20:00,
2013-02-12 10:25:00,46.7,26.0,28.97,SSW,202,2.7,9.4,44,0.00,,CLR,0.00,VWS V14.01,2013-02-12 17:25:00,
2013-02-12 10:30:00,46.6,25.3,28.97,ESE,112,6.7,7.4,43,0.00,,CLR,0.00,VWS V14.01,2013-02-12 17:30:00,
2013-02-12 10:35:00,47.6,27.4,28.97,South,180,3.4,3.4,45,0.00,,CLR,0.00,VWS V14.01,2013-02-12 17:35:00,
2013-02-12 10:40:00,48.2,26.2,28.97,NE,45,0.0,0.0,42,0.00,,CLR,0.00,VWS V14.01,2013-02-12 17:40:00,
2013-02-12 10:45:00,49.1,26.4,28.97,South,180,4.0,4.0,41,0.00,,CLR,0.00,VWS V14.01,2013-02-12 17:45:00,
2013-02-12 10:50:00,49.4,26.7,28.97,SW,225,0.0,0.0,41,0.00,,CLR,0.00,VWS V14.01,2013-02-12 17:50:00,
2013-02-12 10:56:00,50.2,26.2,28.97,NNE,22,2.7,2.7,39,0.00,,CLR,0.00,VWS V14.01,2013-02-12 17:56:00,
2013-02-12 11:01:00,50.5,26.5,28.94,SSE,158,7.4,7.4,39,0.00,,FEW030,0.00,VWS V14.01,2013-02-12 18:01:00,
2013-02-12 11:06:00,51.1,27.0,28.94,West,270,0.0,0.0,39,0.00,,FEW030,0.13,VWS V14.01,2013-02-12 18:06:00,
2013-02-12 11:11:00,50.9,25.6,28.94,South,180,4.0,6.0,37,0.00,,FEW030,0.00,VWS V14.01,2013-02-12 18:11:00,
2013-02-12 11:16:00,50.2,24.3,28.97,West,270,8.1,8.1,36,0.00,,FEW030,0.00,VWS V14.01,2013-02-12 18:16:00,
2013-02-12 11:21:00,50.3,24.4,28.97,SSE,158,10.1,10.1,36,0.00,,FEW030,0.00,VWS V14.01,2013-02-12 18:21:00,
2013-02-12 11:26:00,50.5,24.6,28.97,SE,135,7.4,7.4,36,0.00,,FEW030,0.00,VWS V14.01,2013-02-12 18:26:00,
2013-02-12 11:31:00,51.8,25.7,28.97,NW,315,3.4,6.0,36,0.00,,FEW030,0.00,VWS V14.01,2013-02-12 18:31:00,
2013-02-12 11:36:00,52.5,25.7,28.97,NW,315,0.0,0.0,35,0.00,,FEW030,0.00,VWS V14.01,2013-02-12 18:36:00,
2013-02-12 11:41:00,53.2,26.3,28.97,SE,135,4.7,8.1,35,0.00,,FEW030,0.00,VWS V14.01,2013-02-12 18:41:00,
2013-02-12 11:46:00,52.1,21.7,28.97,NNW,338,9.4,9.4,30,0.00,,FEW030,0.00,VWS V14.01,2013-02-12 18:46:00,
2013-02-12 11:51:00,53.0,22.5,28.97,NNW,338,8.1,8.1,30,0.00,,FEW030,0.00,VWS V14.01,2013-02-12 18:51:00,
2013-02-12 11:56:00,53.0,21.6,28.97,NNW,338,4.0,7.4,29,0.00,,FEW030,0.00,VWS V14.01,2013-02-12 18:56:00,
2013-02-12 12:01:00,54.3,22.7,28.97,SSE,158,3.4,4.7,29,0.00,,FEW040,0.00,VWS V14.01,2013-02-12 19:01:00,
2013-02-12 12:07:00,54.3,22.7,28.97,SSE,158,3.4,6.7,29,0.00,,FEW040,0.00,VWS V14.01,2013-02-12 19:07:00,
2013-02-12 12:12:00,54.8,22.4,28.97,SE,135,4.0,6.7,28,0.00,,FEW040,0.00,VWS V14.01,2013-02-12 19:12:00,
2013-02-12 12:17:00,55.0,22.5,28.97,SE,135,2.7,4.0,28,0.00,,FEW040,0.00,VWS V14.01,2013-02-12 19:17:00,
2013-02-12 12:22:00,54.7,21.4,28.97,SSW,202,6.0,7.4,27,0.00,,FEW040,0.00,VWS V14.01,2013-02-12 19:22:00,
2013-02-12 12:27:00,54.8,21.5,28.97,South,180,7.4,9.4,27,0.00,,FEW040,0.00,VWS V14.01,2013-02-12 19:27:00,
2013-02-12 12:32:00,55.4,21.1,28.94,SE,135,6.7,7.4,26,0.00,,FEW040,0.00,VWS V14.01,2013-02-12 19:32:00,
2013-02-12 12:37:00,55.9,21.5,28.94,NNE,22,8.1,10.1,26,0.00,,FEW040,0.00,VWS V14.01,2013-02-12 19:37:00,
2013-02-12 12:42:00,55.7,21.4,28.94,North,0,8.7,8.7,26,0.00,,FEW040,0.00,VWS V14.01,2013-02-12 19:42:00,
2013-02-12 12:47:00,56.6,21.2,28.94,ESE,112,6.7,6.7,25,0.00,,FEW040,0.13,VWS V14.01,2013-02-12 19:47:00,
2013-02-12 12:52:00,57.0,20.6,28.94,SSW,202,6.0,6.7,24,0.00,,FEW040,0.00,VWS V14.01,2013-02-12 19:52:00,
2013-02-12 12:57:00,56.5,20.1,28.94,NW,315,9.4,9.4,24,0.00,,FEW040,0.00,VWS V14.01,2013-02-12 19:57:00,
2013-02-12 13:02:00,56.8,20.4,28.91,WSW,248,8.7,8.7,24,0.00,,FEW050,0.00,VWS V14.01,2013-02-12 20:02:00,
2013-02-12 13:07:00,57.2,18.7,28.91,SSE,158,6.7,7.4,22,0.00,,FEW050,0.00,VWS V14.01,2013-02-12 20:07:00,
2013-02-12 13:12:00,56.3,18.0,28.91,NW,315,7.4,11.4,22,0.00,,FEW050,0.00,VWS V14.01,2013-02-12 20:12:00,
2013-02-12 13:17:00,57.4,18.9,28.91,NNW,338,12.1,12.1,22,0.00,,FEW050,0.00,VWS V14.01,2013-02-12 20:17:00,
2013-02-12 13:22:00,57.5,19.0,28.91,SE,135,8.7,8.7,22,0.00,,FEW050,0.00,VWS V14.01,2013-02-12 20:22:00,
2013-02-12 13:27:00,57.5,15.6,28.91,WNW,292,7.4,8.1,19,0.00,,FEW050,0.00,VWS V14.01,2013-02-12 20:27:00,
2013-02-12 13:32:00,57.9,15.9,28.88,NW,315,8.7,8.7,19,0.00,,FEW050,0.00,VWS V14.01,2013-02-12 20:32:00,
2013-02-12 13:37:00,58.4,16.4,28.88,NE,45,4.0,6.0,19,0.00,,FEW050,0.00,VWS V14.01,2013-02-12 20:37:00,
2013-02-12 13:42:00,57.4,15.5,28.91,South,180,6.0,11.4,19,0.00,,FEW050,0.00,VWS V14.01,2013-02-12 20:42:00,
2013-02-12 13:47:00,57.4,15.5,28.91,NNW,338,3.4,7.4,19,0.00,,FEW050,0.00,VWS V14.01,2013-02-12 20:47:00,
2013-02-12 13:52:00,58.6,16.5,28.91,NW,315,6.7,6.7,19,0.00,,FEW050,0.00,VWS V14.01,2013-02-12 20:52:00,
2013-02-12 13:57:00,58.8,16.7,28.91,NNW,338,6.0,6.0,19,0.00,,FEW050,0.00,VWS V14.01,2013-02-12 20:57:00,
2013-02-12 14:02:00,59.0,16.8,28.91,NNW,338,6.0,6.7,19,0.00,,FEW065,0.00,VWS V14.01,2013-02-12 21:02:00,
2013-02-12 14:07:00,58.6,16.5,28.91,SE,135,8.7,8.7,19,0.00,,FEW065,0.00,VWS V14.01,2013-02-12 21:07:00,
2013-02-12 14:12:00,58.8,16.7,28.88,North,0,8.1,8.1,19,0.00,,FEW065,0.00,VWS V14.01,2013-02-12 21:12:00,
2013-02-12 14:17:00,59.3,17.1,28.88,West,270,4.7,4.7,19,0.00,,FEW065,0.00,VWS V14.01,2013-02-12 21:17:00,
2013-02-12 14:22:00,59.5,17.2,28.88,SSE,158,2.7,3.4,19,0.00,,FEW065,0.00,VWS V14.01,2013-02-12 21:22:00,
2013-02-12 14:28:00,58.6,14.0,28.88,SW,225,6.0,8.7,17,0.00,,FEW065,0.00,VWS V14.01,2013-02-12 21:28:00,
2013-02-12 14:33:00,59.0,16.8,28.88,SSW,202,3.4,4.7,19,0.00,,FEW065,0.00,VWS V14.01,2013-02-12 21:33:00,
2013-02-12 14:38:00,58.8,16.7,28.88,SSW,202,3.4,4.0,19,0.00,,FEW065,0.00,VWS V14.01,2013-02-12 21:38:00,
2013-02-12 14:43:00,58.6,16.5,28.88,SW,225,8.7,9.4,19,0.00,,FEW065,0.00,VWS V14.01,2013-02-12 21:43:00,
2013-02-12 14:48:00,58.1,13.5,28.88,SSW,202,7.4,11.4,17,0.00,,FEW065,0.00,VWS V14.01,2013-02-12 21:48:00,
2013-02-12 14:53:00,59.2,17.0,28.88,East,90,6.0,6.0,19,0.00,,FEW065,0.00,VWS V14.01,2013-02-12 21:53:00,
2013-02-12 14:58:00,59.5,13.3,28.88,WNW,292,4.7,4.7,16,0.00,,FEW065,0.00,VWS V14.01,2013-02-12 21:58:00,
2013-02-12 15:03:00,59.7,13.5,28.88,NW,315,4.0,6.0,16,0.00,,FEW065,0.00,VWS V14.01,2013-02-12 22:03:00,
2013-02-12 15:08:00,59.9,13.6,28.88,WNW,292,2.7,6.0,16,0.00,,FEW065,0.00,VWS V14.01,2013-02-12 22:08:00,
2013-02-12 15:13:00,60.8,14.3,28.85,ESE,112,4.0,4.0,16,0.00,,FEW065,0.00,VWS V14.01,2013-02-12 22:13:00,
2013-02-12 15:18:00,60.8,14.3,28.85,South,180,4.7,6.7,16,0.00,,FEW065,0.00,VWS V14.01,2013-02-12 22:18:00,
2013-02-12 15:23:00,60.6,14.2,28.85,South,180,0.0,6.7,16,0.00,,FEW065,0.00,VWS V14.01,2013-02-12 22:23:00,
2013-02-12 15:28:00,61.1,14.6,28.85,WSW,248,3.4,3.4,16,0.00,,FEW065,0.00,VWS V14.01,2013-02-12 22:28:00,
2013-02-12 15:33:00,61.5,14.9,28.85,SW,225,2.7,2.7,16,0.00,,FEW065,0.00,VWS V14.01,2013-02-12 22:33:00,
2013-02-12 15:39:00,60.2,13.9,28.85,WSW,248,6.7,6.7,16,0.00,,FEW065,0.00,VWS V14.01,2013-02-12 22:39:00,
2013-02-12 15:44:00,61.1,14.6,28.85,WSW,248,3.4,4.7,16,0.00,,FEW065,0.00,VWS V14.01,2013-02-12 22:44:00,
2013-02-12 15:49:00,60.6,14.2,28.85,SSE,158,3.4,4.0,16,0.00,,FEW065,0.00,VWS V14.01,2013-02-12 22:49:00,
2013-02-12 15:54:00,60.4,14.0,28.85,NNW,338,7.4,7.4,16,0.00,,FEW065,0.00,VWS V14.01,2013-02-12 22:54:00,
2013-02-12 15:59:00,59.3,13.2,28.85,NW,315,16.1,16.1,16,0.00,,FEW065,0.00,VWS V14.01,2013-02-12 22:59:00,
2013-02-12 16:04:00,60.1,13.8,28.85,SW,225,0.0,0.0,16,0.00,,FEW065,0.00,VWS V14.01,2013-02-12 23:04:00,
2013-02-12 16:09:00,60.4,14.0,28.85,SW,225,3.4,3.4,16,0.00,,FEW065,0.00,VWS V14.01,2013-02-12 23:09:00,
2013-02-12 16:14:00,60.4,14.0,28.85,NE,45,4.0,4.0,16,0.00,,FEW065,0.00,VWS V14.01,2013-02-12 23:14:00,
2013-02-12 16:19:00,61.0,14.5,28.85,South,180,0.0,3.4,16,0.00,,FEW065,0.00,VWS V14.01,2013-02-12 23:19:00,
2013-02-12 16:24:00,60.6,14.2,28.85,NW,315,8.1,8.1,16,0.00,,FEW065,0.00,VWS V14.01,2013-02-12 23:24:00,
2013-02-12 16:29:00,59.5,13.3,28.82,NNW,338,10.1,10.1,16,0.00,,FEW065,0.00,VWS V14.01,2013-02-12 23:29:00,
2013-02-12 16:34:00,59.9,13.6,28.82,SW,225,3.4,4.0,16,0.00,,FEW065,0.00,VWS V14.01,2013-02-12 23:34:00,
2013-02-12 16:39:00,60.1,13.8,28.82,West,270,0.0,0.0,16,0.00,,FEW065,0.00,VWS V14.01,2013-02-12 23:39:00,
2013-02-12 16:44:00,59.7,13.5,28.82,NW,315,0.0,8.1,16,0.00,,FEW065,0.00,VWS V14.01,2013-02-12 23:44:00,
2013-02-12 16:49:00,59.7,13.5,28.82,NW,315,6.0,6.0,16,0.00,,FEW065,0.00,VWS V14.01,2013-02-12 23:49:00,
2013-02-12 16:54:00,59.7,13.5,28.82,NW,315,3.4,3.4,16,0.00,,FEW065,0.00,VWS V14.01,2013-02-12 23:54:00,
2013-02-12 16:59:00,59.3,13.2,28.85,West,270,0.0,3.4,16,0.00,,FEW065,0.00,VWS V14.01,2013-02-12 23:59:00,
2013-02-12 17:04:00,59.2,13.0,28.85,South,180,0.0,0.0,16,0.00,,FEW065,0.00,VWS V14.01,2013-02-13 00:04:00,
2013-02-12 17:10:00,59.0,12.9,28.85,SSE,158,4.7,8.7,16,0.00,,FEW065,0.00,VWS V14.01,2013-02-13 00:10:00,
2013-02-12 17:15:00,57.4,12.9,28.85,NNW,338,3.4,3.4,17,0.00,,FEW065,0.00,VWS V14.01,2013-02-13 00:15:00,
2013-02-12 17:20:00,57.2,12.8,28.85,NNW,338,0.0,0.0,17,0.00,,FEW065,0.00,VWS V14.01,2013-02-13 00:20:00,
2013-02-12 17:25:00,56.1,11.9,28.85,NW,315,0.0,0.0,17,0.00,,FEW065,0.00,VWS V14.01,2013-02-13 00:25:00,
2013-02-12 17:30:00,56.1,11.9,28.88,South,180,4.7,6.0,17,0.00,,FEW065,0.00,VWS V14.01,2013-02-13 00:30:00,
2013-02-12 17:35:00,56.1,11.9,28.88,NW,315,0.0,0.0,17,0.00,,FEW065,0.00,VWS V14.01,2013-02-13 00:35:00,
2013-02-12 17:40:00,54.8,10.9,28.88,West,270,0.0,0.0,17,0.00,,FEW065,0.00,VWS V14.01,2013-02-13 00:40:00,
2013-02-12 17:45:00,54.1,10.3,28.85,West,270,4.7,4.7,17,0.00,,FEW065,0.00,VWS V14.01,2013-02-13 00:45:00,
2013-02-12 17:50:00,54.1,10.3,28.85,NNW,338,3.4,4.7,17,0.00,,FEW065,0.00,VWS V14.01,2013-02-13 00:50:00,
2013-02-12 17:55:00,54.1,10.3,28.85,North,0,3.4,6.7,17,0.00,,FEW065,0.00,VWS V14.01,2013-02-13 00:55:00,
2013-02-12 18:00:00,53.4,9.7,28.85,North,0,0.0,3.4,17,0.00,,FEW065,0.00,VWS V14.01,2013-02-13 01:00:00,
2013-02-12 18:05:00,53.4,9.7,28.85,WNW,292,0.0,3.4,17,0.00,,CLR,0.00,VWS V14.01,2013-02-13 01:05:00,
2013-02-12 18:10:00,53.4,9.7,28.85,West,270,3.4,3.4,17,0.00,,CLR,0.00,VWS V14.01,2013-02-13 01:10:00,
2013-02-12 18:15:00,53.4,9.7,28.85,West,270,3.4,4.7,17,0.00,,CLR,0.00,VWS V14.01,2013-02-13 01:15:00,
2013-02-12 18:21:00,52.3,10.1,28.85,WSW,248,6.0,7.4,18,0.00,,CLR,0.00,VWS V14.01,2013-02-13 01:21:00,
2013-02-12 18:26:00,52.0,9.8,28.85,SW,225,4.7,4.7,18,0.00,,CLR,0.00,VWS V14.01,2013-02-13 01:26:00,
2013-02-12 18:31:00,52.0,9.8,28.85,West,270,4.7,4.7,18,0.00,,CLR,0.00,VWS V14.01,2013-02-13 01:31:00,
2013-02-12 18:36:00,51.8,9.6,28.85,WSW,248,6.7,6.7,18,0.00,,CLR,0.00,VWS V14.01,2013-02-13 01:36:00,
2013-02-12 18:41:00,51.8,9.6,28.85,WSW,248,3.4,3.4,18,0.00,,CLR,0.00,VWS V14.01,2013-02-13 01:41:00,
2013-02-12 18:46:00,51.8,9.6,28.85,SW,225,2.7,3.4,18,0.00,,CLR,0.00,VWS V14.01,2013-02-13 01:46:00,
2013-02-12 18:51:00,51.8,9.6,28.85,West,270,3.4,4.0,18,0.00,,CLR,0.00,VWS V14.01,2013-02-13 01:51:00,
2013-02-12 18:56:00,50.7,8.8,28.85,WSW,248,0.0,0.0,18,0.00,,CLR,0.00,VWS V14.01,2013-02-13 01:56:00,
2013-02-12 19:01:00,50.3,8.5,28.85,SW,225,0.0,0.0,18,0.00,,CLR,0.00,VWS V14.01,2013-02-13 02:01:00,
2013-02-12 19:06:00,50.3,8.5,28.85,WSW,248,3.4,4.7,18,0.00,,CLR,0.00,VWS V14.01,2013-02-13 02:06:00,
2013-02-12 19:11:00,50.3,8.5,28.85,West,270,8.7,8.7,18,0.00,,CLR,0.00,VWS V14.01,2013-02-13 02:11:00,
2013-02-12 19:16:00,50.2,8.3,28.85,WSW,248,3.4,4.0,18,0.00,,CLR,0.00,VWS V14.01,2013-02-13 02:16:00,
2013-02-12 19:21:00,50.0,8.2,28.85,NW,315,0.0,3.4,18,0.00,,CLR,0.00,VWS V14.01,2013-02-13 02:21:00,
2013-02-12 19:26:00,49.8,8.0,28.85,WSW,248,7.4,8.1,18,0.00,,CLR,0.00,VWS V14.01,2013-02-13 02:26:00,
2013-02-12 19:31:00,50.0,8.2,28.85,WNW,292,6.0,6.0,18,0.00,,CLR,0.00,VWS V14.01,2013-02-13 02:31:00,
2013-02-12 19:36:00,50.0,8.2,28.85,WSW,248,2.7,8.1,18,0.00,,CLR,0.00,VWS V14.01,2013-02-13 02:36:00,
2013-02-12 19:41:00,50.0,8.2,28.85,SW,225,4.0,4.0,18,0.00,,CLR,0.00,VWS V14.01,2013-02-13 02:41:00,
2013-02-12 19:46:00,49.8,8.0,28.85,West,270,0.0,0.0,18,0.00,,CLR,0.00,VWS V14.01,2013-02-13 02:46:00,
2013-02-12 19:51:00,49.6,9.1,28.85,SW,225,6.0,6.7,19,0.00,,CLR,0.00,VWS V14.01,2013-02-13 02:51:00,
2013-02-12 19:56:00,49.6,9.1,28.85,WSW,248,0.0,0.0,19,0.00,,CLR,0.00,VWS V14.01,2013-02-13 02:56:00,
2013-02-12 20:01:00,49.4,8.9,28.82,SW,225,0.0,0.0,19,0.00,,CLR,0.00,VWS V14.01,2013-02-13 03:01:00,
2013-02-12 20:06:00,49.3,8.8,28.82,SW,225,0.0,0.0,19,0.00,,CLR,0.00,VWS V14.01,2013-02-13 03:06:00,
2013-02-12 20:11:00,49.1,8.6,28.82,SW,225,6.0,6.0,19,0.00,,CLR,0.00,VWS V14.01,2013-02-13 03:11:00,
2013-02-12 20:16:00,49.6,9.1,28.85,WSW,248,7.4,7.4,19,0.00,,CLR,0.00,VWS V14.01,2013-02-13 03:16:00,
2013-02-12 20:21:00,49.6,9.1,28.85,WSW,248,0.0,8.1,19,0.00,,CLR,0.00,VWS V14.01,2013-02-13 03:21:00,
2013-02-12 20:26:00,49.6,9.1,28.85,SW,225,0.0,0.0,19,0.00,,CLR,0.00,VWS V14.01,2013-02-13 03:26:00,
2013-02-12 20:31:00,49.4,8.9,28.85,WSW,248,0.0,3.4,19,0.00,,CLR,0.00,VWS V14.01,2013-02-13 03:31:00,
2013-02-12 20:36:00,49.4,8.9,28.85,WNW,292,0.0,2.7,19,0.00,,CLR,0.00,VWS V14.01,2013-02-13 03:36:00,
2013-02-12 20:41:00,49.1,8.6,28.85,WNW,292,0.0,0.0,19,0.00,,CLR,0.00,VWS V14.01,2013-02-13 03:41:00,
2013-02-12 20:46:00,48.4,8.0,28.85,WNW,292,0.0,0.0,19,0.00,,CLR,0.00,VWS V14.01,2013-02-13 03:46:00,
2013-02-12 20:51:00,48.0,7.7,28.85,WNW,292,0.0,0.0,19,0.00,,CLR,0.00,VWS V14.01,2013-02-13 03:51:00,
2013-02-12 20:56:00,47.3,7.1,28.85,WNW,292,0.0,0.0,19,0.00,,CLR,0.00,VWS V14.01,2013-02-13 03:56:00,
2013-02-12 21:01:00,47.1,7.0,28.85,NW,315,2.7,4.0,19,0.00,,CLR,0.00,VWS V14.01,2013-02-13 04:01:00,
2013-02-12 21:06:00,47.1,7.0,28.85,NW,315,0.0,0.0,19,0.00,,CLR,0.00,VWS V14.01,2013-02-13 04:06:00,
2013-02-12 21:11:00,46.7,6.7,28.85,NW,315,0.0,0.0,19,0.00,,CLR,0.00,VWS V14.01,2013-02-13 04:11:00,
2013-02-12 21:17:00,46.4,6.4,28.85,NW,315,0.0,0.0,19,0.00,,CLR,0.00,VWS V14.01,2013-02-13 04:17:00,
2013-02-12 21:22:00,46.0,6.1,28.85,NW,315,0.0,0.0,19,0.00,,CLR,0.00,VWS V14.01,2013-02-13 04:22:00,
2013-02-12 21:27:00,45.7,5.8,28.85,NW,315,0.0,0.0,19,0.00,,CLR,0.00,VWS V14.01,2013-02-13 04:27:00,
2013-02-12 21:32:00,45.5,5.6,28.85,NW,315,0.0,0.0,19,0.00,,CLR,0.00,VWS V14.01,2013-02-13 04:32:00,
2013-02-12 21:37:00,45.3,5.5,28.85,NW,315,0.0,0.0,19,0.00,,CLR,0.00,VWS V14.01,2013-02-13 04:37:00,
2013-02-12 21:42:00,44.8,5.0,28.85,NW,315,0.0,0.0,19,0.00,,CLR,0.00,VWS V14.01,2013-02-13 04:42:00,
2013-02-12 21:47:00,44.6,4.9,28.88,ESE,112,0.0,0.0,19,0.00,,CLR,0.00,VWS V14.01,2013-02-13 04:47:00,
2013-02-12 21:52:00,44.6,4.9,28.88,ESE,112,0.0,0.0,19,0.00,,CLR,0.00,VWS V14.01,2013-02-13 04:52:00,
2013-02-12 21:57:00,44.2,5.7,28.88,SE,135,0.0,0.0,20,0.00,,CLR,0.00,VWS V14.01,2013-02-13 04:57:00,
2013-02-12 22:00:00,44.2,5.7,28.88,SE,135,0.0,0.0,20,0.00,,CLR,0.00,VWS V14.01,2013-02-13 05:00:00,
2013-02-12 22:01:00,44.2,5.7,28.88,SE,135,0.0,0.0,20,0.00,,CLR,0.00,VWS V14.01,2013-02-13 05:01:00,
2013-02-12 22:06:00,44.0,7.7,28.88,NW,315,0.0,0.0,22,0.00,,CLR,0.00,VWS V14.01,2013-02-13 05:06:00,
2013-02-12 22:11:00,44.0,7.7,28.88,NNW,338,0.0,0.0,22,0.00,,CLR,0.00,VWS V14.01,2013-02-13 05:11:00,
2013-02-12 22:16:00,43.9,7.5,28.88,West,270,0.0,0.0,22,0.00,,CLR,0.00,VWS V14.01,2013-02-13 05:16:00,
2013-02-12 22:22:00,44.0,7.7,28.88,North,0,0.0,0.0,22,0.00,,CLR,0.00,VWS V14.01,2013-02-13 05:22:00,
2013-02-12 22:27:00,44.2,7.8,28.88,WSW,248,0.0,0.0,22,0.00,,CLR,0.00,VWS V14.01,2013-02-13 05:27:00,
2013-02-12 22:32:00,44.2,7.8,28.88,SE,135,6.7,6.7,22,0.00,,CLR,0.00,VWS V14.01,2013-02-13 05:32:00,
2013-02-12 22:37:00,44.4,7.9,28.88,SSE,158,0.0,0.0,22,0.00,,CLR,0.00,VWS V14.01,2013-02-13 05:37:00,
2013-02-12 22:42:00,44.4,7.9,28.88,SSE,158,0.0,0.0,22,0.00,,CLR,0.00,VWS V14.01,2013-02-13 05:42:00,
2013-02-12 22:47:00,44.0,7.7,28.85,SSE,158,0.0,0.0,22,0.00,,CLR,0.00,VWS V14.01,2013-02-13 05:47:00,
2013-02-12 22:52:00,43.7,7.3,28.85,SSE,158,0.0,0.0,22,0.00,,CLR,0.00,VWS V14.01,2013-02-13 05:52:00,
2013-02-12 22:57:00,43.1,6.9,28.85,SSE,158,0.0,0.0,22,0.00,,CLR,0.00,VWS V14.01,2013-02-13 05:57:00,
2013-02-12 23:02:00,42.8,6.6,28.85,SSE,158,0.0,0.0,22,0.00,,CLR,0.00,VWS V14.01,2013-02-13 06:02:00,
2013-02-12 23:07:00,42.2,7.1,28.85,SSE,158,0.0,0.0,23,0.00,,CLR,0.00,VWS V14.01,2013-02-13 06:07:00,
2013-02-12 23:12:00,41.7,8.5,28.85,SSE,158,0.0,0.0,25,0.00,,CLR,0.00,VWS V14.01,2013-02-13 06:12:00,
2013-02-12 23:17:00,41.5,8.3,28.85,SSE,158,0.0,0.0,25,0.00,,CLR,0.00,VWS V14.01,2013-02-13 06:17:00,
2013-02-12 23:22:00,41.3,8.2,28.85,SSE,158,0.0,0.0,25,0.00,,CLR,0.00,VWS V14.01,2013-02-13 06:22:00,
2013-02-12 23:27:00,41.5,10.9,28.82,SSE,158,0.0,0.0,28,0.00,,CLR,0.00,VWS V14.01,2013-02-13 06:27:00,
2013-02-12 23:32:00,41.5,10.9,28.82,North,0,0.0,0.0,28,0.00,,CLR,0.00,VWS V14.01,2013-02-13 06:32:00,
2013-02-12 23:38:00,41.5,10.9,28.82,North,0,0.0,0.0,28,0.00,,CLR,0.00,VWS V14.01,2013-02-13 06:38:00,
2013-02-12 23:43:00,41.5,10.9,28.82,North,0,0.0,0.0,28,0.00,,CLR,0.00,VWS V14.01,2013-02-13 06:43:00,
2013-02-12 23:48:00,41.7,11.0,28.85,West,270,0.0,0.0,28,0.00,,CLR,0.00,VWS V14.01,2013-02-13 06:48:00,
2013-02-12 23:53:00,41.7,11.0,28.85,West,270,0.0,0.0,28,0.00,,CLR,0.00,VWS V14.01,2013-02-13 06:53:00,
2013-02-12 23:58:00,41.7,11.0,28.85,WNW,292,0.0,0.0,28,0.00,,CLR,0.00,VWS V14.01,2013-02-13 06:58:00,